sensor_id;sensor_type;location;lat;lon;timestamp;P1;durP1;ratioP1;P2;durP2;ratioP2
18084;SDS011;9169;44.492;11.372;2023-12-04T00:00:56;28.20;;;5.03;;
18084;SDS011;9169;44.492;11.372;2023-12-04T00:03:25;29.33;;;5.60;;
18084;SDS011;9169;44.492;11.372;2023-12-04T00:05:53;29.17;;;5.50;;
18084;SDS011;9169;44.492;11.372;2023-12-04T00:08:22;28.73;;;4.77;;
18084;SDS011;9169;44.492;11.372;2023-12-04T00:10:50;29.70;;;4.77;;
18084;SDS011;9169;44.492;11.372;2023-12-04T00:13:22;26.50;;;4.50;;
18084;SDS011;9169;44.492;11.372;2023-12-04T00:15:50;29.73;;;5.10;;
18084;SDS011;9169;44.492;11.372;2023-12-04T00:18:18;28.40;;;5.23;;
18084;SDS011;9169;44.492;11.372;2023-12-04T00:20:47;28.97;;;5.50;;
18084;SDS011;9169;44.492;11.372;2023-12-04T00:23:15;27.47;;;5.10;;
18084;SDS011;9169;44.492;11.372;2023-12-04T00:25:44;28.53;;;4.70;;
18084;SDS011;9169;44.492;11.372;2023-12-04T00:28:12;27.50;;;4.83;;
18084;SDS011;9169;44.492;11.372;2023-12-04T00:30:42;28.00;;;4.80;;
18084;SDS011;9169;44.492;11.372;2023-12-04T00:33:10;26.53;;;4.37;;
18084;SDS011;9169;44.492;11.372;2023-12-04T00:35:39;29.80;;;5.13;;
18084;SDS011;9169;44.492;11.372;2023-12-04T00:38:07;27.60;;;4.90;;
18084;SDS011;9169;44.492;11.372;2023-12-04T00:40:36;26.63;;;4.80;;
18084;SDS011;9169;44.492;11.372;2023-12-04T00:43:04;28.40;;;5.17;;
18084;SDS011;9169;44.492;11.372;2023-12-04T00:45:33;30.20;;;4.97;;
18084;SDS011;9169;44.492;11.372;2023-12-04T00:48:03;30.27;;;5.10;;
18084;SDS011;9169;44.492;11.372;2023-12-04T00:50:32;28.30;;;4.83;;
18084;SDS011;9169;44.492;11.372;2023-12-04T00:53:00;35.63;;;10.40;;
18084;SDS011;9169;44.492;11.372;2023-12-04T00:55:29;32.00;;;5.50;;
18084;SDS011;9169;44.492;11.372;2023-12-04T00:57:57;28.37;;;5.30;;
18084;SDS011;9169;44.492;11.372;2023-12-04T01:00:26;28.57;;;5.20;;
18084;SDS011;9169;44.492;11.372;2023-12-04T01:02:54;29.67;;;5.27;;
18084;SDS011;9169;44.492;11.372;2023-12-04T01:05:24;27.83;;;4.80;;
18084;SDS011;9169;44.492;11.372;2023-12-04T01:07:54;26.47;;;4.57;;
18084;SDS011;9169;44.492;11.372;2023-12-04T01:10:22;26.13;;;4.50;;
18084;SDS011;9169;44.492;11.372;2023-12-04T01:12:51;31.77;;;5.10;;
18084;SDS011;9169;44.492;11.372;2023-12-04T01:15:20;28.13;;;5.47;;
18084;SDS011;9169;44.492;11.372;2023-12-04T01:17:50;26.87;;;4.80;;
18084;SDS011;9169;44.492;11.372;2023-12-04T01:20:18;28.40;;;4.50;;
18084;SDS011;9169;44.492;11.372;2023-12-04T01:22:48;26.70;;;4.33;;
18084;SDS011;9169;44.492;11.372;2023-12-04T01:25:17;28.70;;;4.63;;
18084;SDS011;9169;44.492;11.372;2023-12-04T01:27:45;28.23;;;4.73;;
18084;SDS011;9169;44.492;11.372;2023-12-04T01:30:14;28.90;;;5.00;;
18084;SDS011;9169;44.492;11.372;2023-12-04T01:32:43;29.80;;;4.70;;
18084;SDS011;9169;44.492;11.372;2023-12-04T01:35:11;26.90;;;4.50;;
18084;SDS011;9169;44.492;11.372;2023-12-04T01:37:40;27.80;;;4.97;;
18084;SDS011;9169;44.492;11.372;2023-12-04T01:40:10;28.50;;;5.07;;
18084;SDS011;9169;44.492;11.372;2023-12-04T01:42:39;29.20;;;4.80;;
18084;SDS011;9169;44.492;11.372;2023-12-04T01:45:07;27.77;;;4.60;;
18084;SDS011;9169;44.492;11.372;2023-12-04T01:47:36;28.33;;;4.90;;
18084;SDS011;9169;44.492;11.372;2023-12-04T01:50:05;25.90;;;4.80;;
18084;SDS011;9169;44.492;11.372;2023-12-04T01:52:35;27.40;;;4.73;;
18084;SDS011;9169;44.492;11.372;2023-12-04T01:55:05;28.50;;;5.10;;
18084;SDS011;9169;44.492;11.372;2023-12-04T01:57:36;29.00;;;5.60;;
18084;SDS011;9169;44.492;11.372;2023-12-04T02:00:08;28.80;;;5.43;;
18084;SDS011;9169;44.492;11.372;2023-12-04T02:02:38;28.40;;;5.80;;
18084;SDS011;9169;44.492;11.372;2023-12-04T02:05:08;32.67;;;5.60;;
18084;SDS011;9169;44.492;11.372;2023-12-04T02:07:40;28.07;;;6.03;;
18084;SDS011;9169;44.492;11.372;2023-12-04T02:10:09;30.00;;;6.07;;
18084;SDS011;9169;44.492;11.372;2023-12-04T02:12:39;30.17;;;6.57;;
18084;SDS011;9169;44.492;11.372;2023-12-04T02:15:08;30.50;;;5.90;;
18084;SDS011;9169;44.492;11.372;2023-12-04T02:17:36;28.87;;;6.30;;
18084;SDS011;9169;44.492;11.372;2023-12-04T02:20:07;35.00;;;6.90;;
18084;SDS011;9169;44.492;11.372;2023-12-04T02:22:37;33.67;;;7.00;;
18084;SDS011;9169;44.492;11.372;2023-12-04T02:25:07;32.20;;;6.70;;
18084;SDS011;9169;44.492;11.372;2023-12-04T02:27:44;31.93;;;6.73;;
18084;SDS011;9169;44.492;11.372;2023-12-04T02:30:18;33.73;;;7.17;;
18084;SDS011;9169;44.492;11.372;2023-12-04T02:32:50;31.80;;;6.57;;
18084;SDS011;9169;44.492;11.372;2023-12-04T02:35:20;35.50;;;7.33;;
18084;SDS011;9169;44.492;11.372;2023-12-04T02:37:51;35.40;;;6.40;;
18084;SDS011;9169;44.492;11.372;2023-12-04T02:40:22;36.43;;;6.53;;
18084;SDS011;9169;44.492;11.372;2023-12-04T02:42:51;34.20;;;7.03;;
18084;SDS011;9169;44.492;11.372;2023-12-04T02:45:19;32.90;;;6.30;;
18084;SDS011;9169;44.492;11.372;2023-12-04T02:47:48;34.50;;;5.80;;
18084;SDS011;9169;44.492;11.372;2023-12-04T02:50:16;38.83;;;7.17;;
18084;SDS011;9169;44.492;11.372;2023-12-04T02:52:48;34.17;;;6.60;;
18084;SDS011;9169;44.492;11.372;2023-12-04T02:55:16;37.80;;;7.00;;
18084;SDS011;9169;44.492;11.372;2023-12-04T02:57:46;34.67;;;6.60;;
18084;SDS011;9169;44.492;11.372;2023-12-04T03:00:15;36.23;;;6.53;;
18084;SDS011;9169;44.492;11.372;2023-12-04T03:02:44;33.27;;;5.97;;
18084;SDS011;9169;44.492;11.372;2023-12-04T03:05:12;34.60;;;5.97;;
18084;SDS011;9169;44.492;11.372;2023-12-04T03:07:41;38.40;;;6.20;;
18084;SDS011;9169;44.492;11.372;2023-12-04T03:10:10;35.27;;;6.70;;
18084;SDS011;9169;44.492;11.372;2023-12-04T03:12:38;37.83;;;7.27;;
18084;SDS011;9169;44.492;11.372;2023-12-04T03:15:08;40.50;;;6.27;;
18084;SDS011;9169;44.492;11.372;2023-12-04T03:17:39;39.90;;;6.70;;
18084;SDS011;9169;44.492;11.372;2023-12-04T03:20:08;36.60;;;6.90;;
18084;SDS011;9169;44.492;11.372;2023-12-04T03:22:38;40.70;;;6.77;;
18084;SDS011;9169;44.492;11.372;2023-12-04T03:25:06;39.37;;;6.30;;
18084;SDS011;9169;44.492;11.372;2023-12-04T03:27:35;40.00;;;6.70;;
18084;SDS011;9169;44.492;11.372;2023-12-04T03:30:04;36.93;;;6.03;;
18084;SDS011;9169;44.492;11.372;2023-12-04T03:32:34;36.53;;;6.30;;
18084;SDS011;9169;44.492;11.372;2023-12-04T03:35:03;37.70;;;6.90;;
18084;SDS011;9169;44.492;11.372;2023-12-04T03:37:32;38.73;;;6.50;;
18084;SDS011;9169;44.492;11.372;2023-12-04T03:40:00;36.77;;;6.57;;
18084;SDS011;9169;44.492;11.372;2023-12-04T03:42:29;38.57;;;6.27;;
18084;SDS011;9169;44.492;11.372;2023-12-04T03:44:57;34.70;;;5.43;;
18084;SDS011;9169;44.492;11.372;2023-12-04T03:47:26;39.37;;;5.70;;
18084;SDS011;9169;44.492;11.372;2023-12-04T03:49:56;35.50;;;5.80;;
18084;SDS011;9169;44.492;11.372;2023-12-04T03:52:24;33.20;;;5.23;;
18084;SDS011;9169;44.492;11.372;2023-12-04T03:54:53;33.07;;;5.40;;
18084;SDS011;9169;44.492;11.372;2023-12-04T03:57:21;36.20;;;6.37;;
18084;SDS011;9169;44.492;11.372;2023-12-04T03:59:50;35.60;;;5.73;;
18084;SDS011;9169;44.492;11.372;2023-12-04T04:02:18;34.77;;;5.27;;
18084;SDS011;9169;44.492;11.372;2023-12-04T04:04:47;33.60;;;5.90;;
18084;SDS011;9169;44.492;11.372;2023-12-04T04:07:17;35.13;;;5.33;;
18084;SDS011;9169;44.492;11.372;2023-12-04T04:09:45;32.73;;;5.03;;
18084;SDS011;9169;44.492;11.372;2023-12-04T04:12:15;32.50;;;5.00;;
18084;SDS011;9169;44.492;11.372;2023-12-04T04:14:43;33.03;;;4.93;;
18084;SDS011;9169;44.492;11.372;2023-12-04T04:17:12;33.27;;;4.90;;
18084;SDS011;9169;44.492;11.372;2023-12-04T04:19:40;32.30;;;4.30;;
18084;SDS011;9169;44.492;11.372;2023-12-04T04:22:09;34.57;;;5.57;;
18084;SDS011;9169;44.492;11.372;2023-12-04T04:24:39;34.80;;;5.00;;
18084;SDS011;9169;44.492;11.372;2023-12-04T04:27:08;32.67;;;4.73;;
18084;SDS011;9169;44.492;11.372;2023-12-04T04:29:36;32.60;;;4.70;;
18084;SDS011;9169;44.492;11.372;2023-12-04T04:32:05;32.87;;;5.10;;
18084;SDS011;9169;44.492;11.372;2023-12-04T04:34:34;37.60;;;5.07;;
18084;SDS011;9169;44.492;11.372;2023-12-04T04:37:03;33.97;;;4.70;;
18084;SDS011;9169;44.492;11.372;2023-12-04T04:39:31;35.97;;;5.60;;
18084;SDS011;9169;44.492;11.372;2023-12-04T04:42:01;33.90;;;4.33;;
18084;SDS011;9169;44.492;11.372;2023-12-04T04:44:30;32.07;;;4.60;;
18084;SDS011;9169;44.492;11.372;2023-12-04T04:46:58;34.13;;;5.03;;
18084;SDS011;9169;44.492;11.372;2023-12-04T04:49:27;31.17;;;4.20;;
18084;SDS011;9169;44.492;11.372;2023-12-04T04:51:55;31.30;;;4.30;;
18084;SDS011;9169;44.492;11.372;2023-12-04T04:54:24;30.90;;;4.90;;
18084;SDS011;9169;44.492;11.372;2023-12-04T04:56:52;30.40;;;4.73;;
18084;SDS011;9169;44.492;11.372;2023-12-04T04:59:22;30.70;;;4.63;;
18084;SDS011;9169;44.492;11.372;2023-12-04T05:01:51;31.70;;;4.17;;
18084;SDS011;9169;44.492;11.372;2023-12-04T05:04:19;30.70;;;4.90;;
18084;SDS011;9169;44.492;11.372;2023-12-04T05:06:48;30.60;;;4.60;;
18084;SDS011;9169;44.492;11.372;2023-12-04T05:09:16;30.10;;;4.57;;
18084;SDS011;9169;44.492;11.372;2023-12-04T05:11:45;34.47;;;4.83;;
18084;SDS011;9169;44.492;11.372;2023-12-04T05:14:13;33.90;;;4.70;;
18084;SDS011;9169;44.492;11.372;2023-12-04T05:16:43;30.63;;;4.70;;
18084;SDS011;9169;44.492;11.372;2023-12-04T05:19:12;32.43;;;5.40;;
18084;SDS011;9169;44.492;11.372;2023-12-04T05:21:40;29.90;;;4.53;;
18084;SDS011;9169;44.492;11.372;2023-12-04T05:24:09;32.50;;;4.67;;
18084;SDS011;9169;44.492;11.372;2023-12-04T05:26:37;32.60;;;4.80;;
18084;SDS011;9169;44.492;11.372;2023-12-04T05:29:06;32.77;;;4.63;;
18084;SDS011;9169;44.492;11.372;2023-12-04T05:31:34;29.67;;;4.20;;
18084;SDS011;9169;44.492;11.372;2023-12-04T05:34:04;32.40;;;5.07;;
18084;SDS011;9169;44.492;11.372;2023-12-04T05:36:33;30.57;;;4.20;;
18084;SDS011;9169;44.492;11.372;2023-12-04T05:39:01;34.20;;;5.43;;
18084;SDS011;9169;44.492;11.372;2023-12-04T05:41:31;32.03;;;5.70;;
18084;SDS011;9169;44.492;11.372;2023-12-04T05:43:59;31.17;;;5.03;;
18084;SDS011;9169;44.492;11.372;2023-12-04T05:46:28;31.03;;;4.90;;
18084;SDS011;9169;44.492;11.372;2023-12-04T05:48:56;34.03;;;5.17;;
18084;SDS011;9169;44.492;11.372;2023-12-04T05:51:26;30.43;;;4.60;;
18084;SDS011;9169;44.492;11.372;2023-12-04T05:53:55;32.57;;;5.00;;
18084;SDS011;9169;44.492;11.372;2023-12-04T05:56:24;31.50;;;5.40;;
18084;SDS011;9169;44.492;11.372;2023-12-04T05:58:52;35.03;;;5.10;;
18084;SDS011;9169;44.492;11.372;2023-12-04T06:01:22;33.23;;;4.73;;
18084;SDS011;9169;44.492;11.372;2023-12-04T06:03:51;32.83;;;5.23;;
18084;SDS011;9169;44.492;11.372;2023-12-04T06:06:19;32.57;;;5.30;;
18084;SDS011;9169;44.492;11.372;2023-12-04T06:08:49;34.73;;;5.40;;
18084;SDS011;9169;44.492;11.372;2023-12-04T06:11:17;36.03;;;5.50;;
18084;SDS011;9169;44.492;11.372;2023-12-04T06:13:46;33.73;;;5.30;;
18084;SDS011;9169;44.492;11.372;2023-12-04T06:16:14;34.77;;;5.13;;
18084;SDS011;9169;44.492;11.372;2023-12-04T06:18:43;36.50;;;6.00;;
18084;SDS011;9169;44.492;11.372;2023-12-04T06:21:11;33.00;;;5.50;;
18084;SDS011;9169;44.492;11.372;2023-12-04T06:23:41;41.43;;;5.87;;
18084;SDS011;9169;44.492;11.372;2023-12-04T06:26:12;39.87;;;6.10;;
18084;SDS011;9169;44.492;11.372;2023-12-04T06:28:41;43.97;;;6.63;;
18084;SDS011;9169;44.492;11.372;2023-12-04T06:31:10;44.53;;;5.40;;
18084;SDS011;9169;44.492;11.372;2023-12-04T06:33:40;34.30;;;5.47;;
18084;SDS011;9169;44.492;11.372;2023-12-04T06:36:09;33.00;;;5.57;;
18084;SDS011;9169;44.492;11.372;2023-12-04T06:38:40;33.00;;;5.10;;
18084;SDS011;9169;44.492;11.372;2023-12-04T06:41:13;33.00;;;5.03;;
18084;SDS011;9169;44.492;11.372;2023-12-04T06:43:42;37.87;;;5.30;;
18084;SDS011;9169;44.492;11.372;2023-12-04T06:46:11;33.60;;;5.20;;
18084;SDS011;9169;44.492;11.372;2023-12-04T06:48:43;36.80;;;5.93;;
18084;SDS011;9169;44.492;11.372;2023-12-04T06:51:12;34.20;;;6.07;;
18084;SDS011;9169;44.492;11.372;2023-12-04T06:53:40;36.70;;;6.00;;
18084;SDS011;9169;44.492;11.372;2023-12-04T06:56:09;35.30;;;5.93;;
18084;SDS011;9169;44.492;11.372;2023-12-04T06:58:39;43.57;;;6.63;;
18084;SDS011;9169;44.492;11.372;2023-12-04T07:01:07;37.80;;;6.00;;
18084;SDS011;9169;44.492;11.372;2023-12-04T07:03:36;37.43;;;5.90;;
18084;SDS011;9169;44.492;11.372;2023-12-04T07:06:05;33.60;;;5.90;;
18084;SDS011;9169;44.492;11.372;2023-12-04T07:08:34;33.00;;;5.80;;
18084;SDS011;9169;44.492;11.372;2023-12-04T07:11:03;31.47;;;5.90;;
18084;SDS011;9169;44.492;11.372;2023-12-04T07:13:34;35.70;;;5.90;;
18084;SDS011;9169;44.492;11.372;2023-12-04T07:16:06;35.40;;;6.47;;
18084;SDS011;9169;44.492;11.372;2023-12-04T07:18:35;37.50;;;6.17;;
18084;SDS011;9169;44.492;11.372;2023-12-04T07:21:04;35.00;;;6.57;;
18084;SDS011;9169;44.492;11.372;2023-12-04T07:23:33;41.63;;;6.90;;
18084;SDS011;9169;44.492;11.372;2023-12-04T07:26:02;39.43;;;6.10;;
18084;SDS011;9169;44.492;11.372;2023-12-04T07:28:31;37.03;;;6.60;;
18084;SDS011;9169;44.492;11.372;2023-12-04T07:31:00;33.67;;;6.40;;
18084;SDS011;9169;44.492;11.372;2023-12-04T07:33:30;33.00;;;5.93;;
18084;SDS011;9169;44.492;11.372;2023-12-04T07:36:00;33.30;;;6.53;;
18084;SDS011;9169;44.492;11.372;2023-12-04T07:38:29;34.43;;;6.30;;
18084;SDS011;9169;44.492;11.372;2023-12-04T07:40:57;33.67;;;7.07;;
18084;SDS011;9169;44.492;11.372;2023-12-04T07:43:25;35.03;;;6.67;;
18084;SDS011;9169;44.492;11.372;2023-12-04T07:45:54;35.10;;;7.20;;
18084;SDS011;9169;44.492;11.372;2023-12-04T07:48:24;34.70;;;5.97;;
18084;SDS011;9169;44.492;11.372;2023-12-04T07:50:54;33.93;;;6.57;;
18084;SDS011;9169;44.492;11.372;2023-12-04T07:53:22;37.13;;;6.70;;
18084;SDS011;9169;44.492;11.372;2023-12-04T07:55:51;57.70;;;6.97;;
18084;SDS011;9169;44.492;11.372;2023-12-04T07:58:20;37.60;;;6.50;;
18084;SDS011;9169;44.492;11.372;2023-12-04T08:00:49;32.63;;;6.37;;
18084;SDS011;9169;44.492;11.372;2023-12-04T08:03:17;35.03;;;6.73;;
18084;SDS011;9169;44.492;11.372;2023-12-04T08:05:46;34.60;;;6.80;;
18084;SDS011;9169;44.492;11.372;2023-12-04T08:08:16;32.73;;;6.77;;
18084;SDS011;9169;44.492;11.372;2023-12-04T08:10:44;33.10;;;6.83;;
18084;SDS011;9169;44.492;11.372;2023-12-04T08:13:13;38.03;;;6.17;;
18084;SDS011;9169;44.492;11.372;2023-12-04T08:15:41;37.13;;;7.30;;
18084;SDS011;9169;44.492;11.372;2023-12-04T08:18:10;32.33;;;6.43;;
18084;SDS011;9169;44.492;11.372;2023-12-04T08:20:39;33.93;;;6.73;;
18084;SDS011;9169;44.492;11.372;2023-12-04T08:23:08;38.53;;;6.73;;
18084;SDS011;9169;44.492;11.372;2023-12-04T08:25:38;32.67;;;6.37;;
18084;SDS011;9169;44.492;11.372;2023-12-04T08:28:06;31.43;;;6.50;;
18084;SDS011;9169;44.492;11.372;2023-12-04T08:30:35;35.00;;;6.97;;
18084;SDS011;9169;44.492;11.372;2023-12-04T08:33:04;32.10;;;6.67;;
18084;SDS011;9169;44.492;11.372;2023-12-04T08:35:33;31.43;;;6.60;;
18084;SDS011;9169;44.492;11.372;2023-12-04T08:38:01;33.33;;;7.80;;
18084;SDS011;9169;44.492;11.372;2023-12-04T08:40:30;35.87;;;8.30;;
18084;SDS011;9169;44.492;11.372;2023-12-04T08:43:00;35.60;;;8.97;;
18084;SDS011;9169;44.492;11.372;2023-12-04T08:45:28;41.23;;;8.40;;
18084;SDS011;9169;44.492;11.372;2023-12-04T08:47:57;36.73;;;7.27;;
18084;SDS011;9169;44.492;11.372;2023-12-04T08:50:25;40.10;;;8.13;;
18084;SDS011;9169;44.492;11.372;2023-12-04T08:52:54;37.50;;;7.73;;
18084;SDS011;9169;44.492;11.372;2023-12-04T08:55:22;38.33;;;6.93;;
18084;SDS011;9169;44.492;11.372;2023-12-04T08:57:51;34.70;;;6.70;;
18084;SDS011;9169;44.492;11.372;2023-12-04T09:00:21;32.90;;;7.70;;
18084;SDS011;9169;44.492;11.372;2023-12-04T09:02:49;32.30;;;7.10;;
18084;SDS011;9169;44.492;11.372;2023-12-04T09:05:19;36.47;;;7.30;;
18084;SDS011;9169;44.492;11.372;2023-12-04T09:07:51;49.67;;;7.83;;
18084;SDS011;9169;44.492;11.372;2023-12-04T09:10:22;35.27;;;6.53;;
18084;SDS011;9169;44.492;11.372;2023-12-04T09:12:51;29.47;;;5.70;;
18084;SDS011;9169;44.492;11.372;2023-12-04T09:15:21;33.43;;;6.20;;
18084;SDS011;9169;44.492;11.372;2023-12-04T09:17:50;34.70;;;6.60;;
18084;SDS011;9169;44.492;11.372;2023-12-04T09:20:18;35.07;;;6.60;;
18084;SDS011;9169;44.492;11.372;2023-12-04T09:22:47;29.73;;;6.23;;
18084;SDS011;9169;44.492;11.372;2023-12-04T09:25:18;35.03;;;6.30;;
18084;SDS011;9169;44.492;11.372;2023-12-04T09:27:46;35.43;;;7.83;;
18084;SDS011;9169;44.492;11.372;2023-12-04T09:30:15;39.27;;;7.57;;
18084;SDS011;9169;44.492;11.372;2023-12-04T09:32:45;48.63;;;8.40;;
18084;SDS011;9169;44.492;11.372;2023-12-04T09:35:14;37.80;;;7.27;;
18084;SDS011;9169;44.492;11.372;2023-12-04T09:37:43;38.40;;;7.30;;
18084;SDS011;9169;44.492;11.372;2023-12-04T09:40:12;34.67;;;6.70;;
18084;SDS011;9169;44.492;11.372;2023-12-04T09:42:40;30.43;;;6.47;;
18084;SDS011;9169;44.492;11.372;2023-12-04T09:45:09;33.67;;;7.20;;
18084;SDS011;9169;44.492;11.372;2023-12-04T09:47:39;29.30;;;6.63;;
18084;SDS011;9169;44.492;11.372;2023-12-04T09:50:09;32.93;;;7.50;;
18084;SDS011;9169;44.492;11.372;2023-12-04T09:52:38;38.53;;;7.90;;
18084;SDS011;9169;44.492;11.372;2023-12-04T09:55:07;32.43;;;8.17;;
18084;SDS011;9169;44.492;11.372;2023-12-04T09:57:35;37.13;;;9.13;;
18084;SDS011;9169;44.492;11.372;2023-12-04T10:00:05;45.93;;;8.47;;
18084;SDS011;9169;44.492;11.372;2023-12-04T10:02:37;33.67;;;8.30;;
18084;SDS011;9169;44.492;11.372;2023-12-04T10:05:09;32.30;;;8.10;;
18084;SDS011;9169;44.492;11.372;2023-12-04T10:07:38;43.93;;;8.40;;
18084;SDS011;9169;44.492;11.372;2023-12-04T10:10:07;30.57;;;7.47;;
18084;SDS011;9169;44.492;11.372;2023-12-04T10:12:36;26.90;;;6.70;;
18084;SDS011;9169;44.492;11.372;2023-12-04T10:15:05;29.20;;;6.90;;
18084;SDS011;9169;44.492;11.372;2023-12-04T10:17:35;36.97;;;7.57;;
18084;SDS011;9169;44.492;11.372;2023-12-04T10:20:05;34.57;;;8.00;;
18084;SDS011;9169;44.492;11.372;2023-12-04T10:22:42;36.33;;;6.70;;
18084;SDS011;9169;44.492;11.372;2023-12-04T10:25:21;29.83;;;7.20;;
18084;SDS011;9169;44.492;11.372;2023-12-04T10:27:51;34.53;;;7.40;;
18084;SDS011;9169;44.492;11.372;2023-12-04T10:30:24;31.33;;;7.30;;
18084;SDS011;9169;44.492;11.372;2023-12-04T10:32:54;28.03;;;7.50;;
18084;SDS011;9169;44.492;11.372;2023-12-04T10:35:28;30.03;;;8.60;;
18084;SDS011;9169;44.492;11.372;2023-12-04T10:37:59;27.63;;;7.80;;
18084;SDS011;9169;44.492;11.372;2023-12-04T10:40:28;36.10;;;7.97;;
18084;SDS011;9169;44.492;11.372;2023-12-04T10:43:11;32.07;;;8.00;;
18084;SDS011;9169;44.492;11.372;2023-12-04T10:45:44;28.07;;;8.67;;
18084;SDS011;9169;44.492;11.372;2023-12-04T10:48:14;32.50;;;8.10;;
18084;SDS011;9169;44.492;11.372;2023-12-04T10:50:44;28.20;;;8.93;;
18084;SDS011;9169;44.492;11.372;2023-12-04T10:53:15;30.70;;;7.73;;
18084;SDS011;9169;44.492;11.372;2023-12-04T10:55:45;26.63;;;7.77;;
18084;SDS011;9169;44.492;11.372;2023-12-04T10:58:16;27.27;;;7.97;;
18084;SDS011;9169;44.492;11.372;2023-12-04T11:00:47;26.40;;;7.80;;
18084;SDS011;9169;44.492;11.372;2023-12-04T11:03:22;28.53;;;7.83;;
18084;SDS011;9169;44.492;11.372;2023-12-04T11:06:00;29.63;;;8.20;;
18084;SDS011;9169;44.492;11.372;2023-12-04T11:08:32;27.20;;;8.90;;
18084;SDS011;9169;44.492;11.372;2023-12-04T11:11:03;25.33;;;8.10;;
18084;SDS011;9169;44.492;11.372;2023-12-04T11:13:34;30.63;;;8.60;;
18084;SDS011;9169;44.492;11.372;2023-12-04T11:16:07;23.03;;;7.17;;
18084;SDS011;9169;44.492;11.372;2023-12-04T11:18:41;28.33;;;8.37;;
18084;SDS011;9169;44.492;11.372;2023-12-04T11:21:12;25.23;;;8.40;;
18084;SDS011;9169;44.492;11.372;2023-12-04T11:23:42;34.77;;;9.40;;
18084;SDS011;9169;44.492;11.372;2023-12-04T11:26:11;32.10;;;9.50;;
18084;SDS011;9169;44.492;11.372;2023-12-04T11:28:40;29.53;;;10.37;;
18084;SDS011;9169;44.492;11.372;2023-12-04T11:31:09;34.77;;;9.90;;
18084;SDS011;9169;44.492;11.372;2023-12-04T11:33:39;30.40;;;10.20;;
18084;SDS011;9169;44.492;11.372;2023-12-04T11:36:08;35.60;;;11.13;;
18084;SDS011;9169;44.492;11.372;2023-12-04T11:38:46;29.40;;;11.07;;
18084;SDS011;9169;44.492;11.372;2023-12-04T11:41:18;37.63;;;11.03;;
18084;SDS011;9169;44.492;11.372;2023-12-04T11:43:51;34.60;;;12.10;;
18084;SDS011;9169;44.492;11.372;2023-12-04T11:46:23;31.97;;;11.13;;
18084;SDS011;9169;44.492;11.372;2023-12-04T11:48:53;33.13;;;12.10;;
18084;SDS011;9169;44.492;11.372;2023-12-04T11:54:18;30.93;;;12.70;;
18084;SDS011;9169;44.492;11.372;2023-12-04T11:57:01;30.43;;;12.73;;
18084;SDS011;9169;44.492;11.372;2023-12-04T11:59:48;37.73;;;13.03;;
18084;SDS011;9169;44.492;11.372;2023-12-04T12:02:17;29.70;;;12.60;;
18084;SDS011;9169;44.492;11.372;2023-12-04T12:04:46;33.93;;;12.83;;
18084;SDS011;9169;44.492;11.372;2023-12-04T12:07:15;32.90;;;12.73;;
18084;SDS011;9169;44.492;11.372;2023-12-04T12:09:45;30.30;;;12.70;;
18084;SDS011;9169;44.492;11.372;2023-12-04T12:12:14;30.80;;;11.83;;
18084;SDS011;9169;44.492;11.372;2023-12-04T12:14:43;32.10;;;13.00;;
18084;SDS011;9169;44.492;11.372;2023-12-04T12:17:12;34.90;;;12.83;;
18084;SDS011;9169;44.492;11.372;2023-12-04T12:19:41;31.63;;;12.90;;
18084;SDS011;9169;44.492;11.372;2023-12-04T12:22:09;33.70;;;13.70;;
18084;SDS011;9169;44.492;11.372;2023-12-04T12:24:38;30.40;;;13.60;;
18084;SDS011;9169;44.492;11.372;2023-12-04T12:27:09;30.37;;;12.80;;
18084;SDS011;9169;44.492;11.372;2023-12-04T12:29:37;33.17;;;12.97;;
18084;SDS011;9169;44.492;11.372;2023-12-04T12:32:06;29.30;;;13.10;;
18084;SDS011;9169;44.492;11.372;2023-12-04T12:34:35;30.40;;;13.37;;
18084;SDS011;9169;44.492;11.372;2023-12-04T12:37:03;31.60;;;13.37;;
18084;SDS011;9169;44.492;11.372;2023-12-04T12:39:32;30.93;;;13.10;;
18084;SDS011;9169;44.492;11.372;2023-12-04T12:42:01;32.67;;;12.17;;
18084;SDS011;9169;44.492;11.372;2023-12-04T12:44:40;31.60;;;12.70;;
18084;SDS011;9169;44.492;11.372;2023-12-04T12:47:09;31.03;;;13.13;;
18084;SDS011;9169;44.492;11.372;2023-12-04T12:49:38;32.80;;;13.97;;
18084;SDS011;9169;44.492;11.372;2023-12-04T12:52:07;31.83;;;12.20;;
18084;SDS011;9169;44.492;11.372;2023-12-04T12:54:36;29.50;;;11.77;;
18084;SDS011;9169;44.492;11.372;2023-12-04T12:57:05;30.47;;;12.63;;
18084;SDS011;9169;44.492;11.372;2023-12-04T12:59:34;29.53;;;12.00;;
18084;SDS011;9169;44.492;11.372;2023-12-04T13:02:06;26.60;;;11.40;;
18084;SDS011;9169;44.492;11.372;2023-12-04T13:04:37;28.87;;;11.20;;
18084;SDS011;9169;44.492;11.372;2023-12-04T13:07:06;30.37;;;11.40;;
18084;SDS011;9169;44.492;11.372;2023-12-04T13:09:35;32.60;;;12.00;;
18084;SDS011;9169;44.492;11.372;2023-12-04T13:12:04;28.67;;;10.73;;
18084;SDS011;9169;44.492;11.372;2023-12-04T13:14:35;36.20;;;12.67;;
18084;SDS011;9169;44.492;11.372;2023-12-04T13:17:05;29.20;;;11.50;;
18084;SDS011;9169;44.492;11.372;2023-12-04T13:19:35;31.63;;;11.43;;
18084;SDS011;9169;44.492;11.372;2023-12-04T13:22:04;29.27;;;11.73;;
18084;SDS011;9169;44.492;11.372;2023-12-04T13:24:33;34.37;;;10.93;;
18084;SDS011;9169;44.492;11.372;2023-12-04T13:27:04;34.03;;;12.10;;
18084;SDS011;9169;44.492;11.372;2023-12-04T13:29:33;28.27;;;11.27;;
18084;SDS011;9169;44.492;11.372;2023-12-04T13:32:02;28.30;;;11.03;;
18084;SDS011;9169;44.492;11.372;2023-12-04T13:34:32;27.83;;;11.80;;
18084;SDS011;9169;44.492;11.372;2023-12-04T13:37:01;32.50;;;14.00;;
18084;SDS011;9169;44.492;11.372;2023-12-04T13:39:31;32.77;;;13.40;;
18084;SDS011;9169;44.492;11.372;2023-12-04T13:42:14;30.40;;;14.40;;
18084;SDS011;9169;44.492;11.372;2023-12-04T13:44:59;31.57;;;13.30;;
18084;SDS011;9169;44.492;11.372;2023-12-04T13:47:30;27.33;;;12.10;;
18084;SDS011;9169;44.492;11.372;2023-12-04T13:50:02;33.30;;;12.73;;
18084;SDS011;9169;44.492;11.372;2023-12-04T13:52:31;33.47;;;11.60;;
18084;SDS011;9169;44.492;11.372;2023-12-04T13:55:01;31.07;;;12.90;;
18084;SDS011;9169;44.492;11.372;2023-12-04T13:57:38;32.13;;;12.00;;
18084;SDS011;9169;44.492;11.372;2023-12-04T14:00:23;35.10;;;12.53;;
18084;SDS011;9169;44.492;11.372;2023-12-04T14:02:51;34.43;;;13.30;;
18084;SDS011;9169;44.492;11.372;2023-12-04T14:05:21;32.80;;;12.03;;
18084;SDS011;9169;44.492;11.372;2023-12-04T14:07:50;34.20;;;13.00;;
18084;SDS011;9169;44.492;11.372;2023-12-04T14:10:19;36.27;;;11.53;;
18084;SDS011;9169;44.492;11.372;2023-12-04T14:12:47;32.80;;;11.90;;
18084;SDS011;9169;44.492;11.372;2023-12-04T14:15:16;39.47;;;11.90;;
18084;SDS011;9169;44.492;11.372;2023-12-04T14:17:45;32.20;;;11.97;;
18084;SDS011;9169;44.492;11.372;2023-12-04T14:20:14;34.97;;;11.27;;
18084;SDS011;9169;44.492;11.372;2023-12-04T14:22:49;35.80;;;12.17;;
18084;SDS011;9169;44.492;11.372;2023-12-04T14:25:18;29.97;;;10.40;;
18084;SDS011;9169;44.492;11.372;2023-12-04T14:27:50;32.00;;;9.93;;
18084;SDS011;9169;44.492;11.372;2023-12-04T14:30:18;33.50;;;11.27;;
18084;SDS011;9169;44.492;11.372;2023-12-04T14:32:47;34.37;;;11.40;;
18084;SDS011;9169;44.492;11.372;2023-12-04T14:35:15;34.60;;;11.00;;
18084;SDS011;9169;44.492;11.372;2023-12-04T14:37:44;36.20;;;11.83;;
18084;SDS011;9169;44.492;11.372;2023-12-04T14:40:15;37.80;;;11.97;;
18084;SDS011;9169;44.492;11.372;2023-12-04T14:42:44;38.27;;;11.77;;
18084;SDS011;9169;44.492;11.372;2023-12-04T14:45:13;41.03;;;11.73;;
18084;SDS011;9169;44.492;11.372;2023-12-04T14:47:43;44.33;;;13.23;;